Date,TemperatureHighF,TemperatureAvgF,TemperatureLowF,DewpointHighF,DewpointAvgF,DewpointLowF,HumidityHigh,HumidityAvg,HumidityLow,PressureMaxIn,PressureMinIn,WindSpeedMaxMPH,WindSpeedAvgMPH,GustSpeedMaxMPH,PrecipitationSumIn
2013-1-1,42.0,39.5,35.1,31.3,30.0,27.2,79,69,60,30.01,29.91,5,1,6,0.00
2013-1-2,35.7,30.9,25.0,27.4,19.3,14.3,74,62,45,30.23,29.99,5,1,7,0.00
2013-1-3,37.8,29.0,18.4,23.0,19.0,13.5,85,67,51,30.24,30.13,5,0,6,0.00
2013-1-4,39.8,35.5,33.2,24.9,23.1,21.8,65,60,53,30.20,30.10,10,5,12,0.00
2013-1-5,42.7,35.9,31.5,27.5,24.0,21.3,78,62,49,30.37,30.14,9,1,10,0.00
2013-1-6,46.3,39.3,29.5,32.1,29.2,24.6,84,68,54,30.17,30.01,3,0,7,0.00
2013-1-7,42.9,38.0,26.0,32.2,26.9,20.4,79,64,54,30.43,30.14,4,1,10,0.00
2013-1-8,51.1,32.9,20.5,36.3,26.5,17.5,90,78,55,30.40,30.33,1,0,2,0.00
2013-1-9,50.0,36.3,24.8,41.7,31.0,22.0,93,82,53,30.40,30.22,6,0,7,0.00
2013-1-10,50.4,44.8,37.8,34.3,31.5,28.4,78,60,51,30.60,30.38,7,1,10,0.00
2013-1-11,46.7,42.0,37.1,41.5,35.6,29.8,94,78,63,30.46,30.08,6,2,10,0.01
2013-1-12,58.7,46.2,40.0,51.7,43.2,38.6,96,90,76,30.16,30.07,1,0,2,0.00
2013-1-13,57.5,49.9,41.5,53.4,47.6,39.7,96,92,84,30.07,29.91,4,0,5,0.00
2013-1-14,53.4,48.6,38.9,51.9,42.5,34.5,97,80,63,30.30,29.92,6,2,11,0.02
2013-1-15,40.1,37.9,34.4,36.3,34.7,32.6,94,88,80,30.33,30.15,2,0,4,0.04
2013-1-16,38.4,35.9,33.3,37.4,34.7,31.8,96,95,94,30.15,29.84,4,0,5,0.00
2013-1-17,42.7,39.2,35.7,38.7,31.2,26.3,96,74,54,30.13,29.97,5,1,7,0.00
2013-1-18,37.4,32.8,28.9,28.6,18.7,13.0,73,56,38,30.48,30.05,9,2,13,0.00
2013-1-19,58.0,42.0,29.4,32.4,27.4,22.5,76,58,33,30.35,29.90,5,1,7,0.00
2013-1-20,54.1,42.8,29.7,33.8,23.5,14.2,65,48,27,30.07,29.80,14,3,16,0.00
2013-1-21,42.9,32.1,25.6,23.0,18.3,10.7,73,57,38,30.08,29.80,8,2,13,0.00
2013-1-22,25.2,18.2,14.0,9.6,0.9,-1.9,60,46,37,30.29,29.97,11,4,20,0.00
2013-1-23,24.9,18.5,11.4,12.2,3.2,0.9,70,52,38,30.35,30.13,6,1,14,0.00
2013-1-24,26.4,20.4,15.4,15.8,9.1,0.4,89,64,42,30.52,30.09,9,2,13,0.00
2013-1-25,23.1,18.1,11.9,16.7,10.3,1.2,88,72,49,30.52,30.06,3,0,6,0.00
2013-1-26,31.1,24.7,17.8,25.6,20.7,14.6,91,85,75,30.43,30.07,1,0,2,0.00
2013-1-27,35.3,27.7,19.3,24.0,19.3,12.8,83,71,57,30.59,30.43,2,0,4,0.00
2013-1-28,42.5,35.6,29.1,39.5,32.6,24.2,94,89,80,30.44,30.03,2,0,4,0.00
2013-1-29,68.8,53.8,40.6,56.7,49.1,39.0,96,85,65,30.09,29.97,2,1,4,0.00
2013-1-30,69.6,58.5,55.4,61.8,56.2,54.3,96,92,70,29.59,29.20,10,2,10,1.37
2013-1-31,55.4,38.9,28.9,55.1,26.9,13.3,99,63,48,29.87,29.16,15,8,21,0.36